createdAt,value
2022-09-25T00:01:50.911Z,68.43
2022-09-25T00:04:17.377Z,69.32
2022-09-25T00:06:43.813Z,65.85
2022-09-25T00:09:10.866Z,67.05
2022-09-25T00:11:38.514Z,68.43
2022-09-25T00:14:04.964Z,65.45
2022-09-25T00:16:32.865Z,63.63
2022-09-25T00:19:18.728Z,63.47
2022-09-25T00:21:45.511Z,63.53
2022-09-25T00:24:13.523Z,64.65
2022-09-25T00:26:42.742Z,64.95
2022-09-25T00:29:15.186Z,64.97
2022-09-25T00:31:41.761Z,63.85
2022-09-25T00:34:08.405Z,63.08
2022-09-25T00:36:35.044Z,64.93
2022-09-25T00:39:01.600Z,63.83
2022-09-25T00:41:31.894Z,63.35
2022-09-25T00:46:42.731Z,58.72
2022-09-25T00:49:24.388Z,61.85
2022-09-25T00:51:55.348Z,65.32
2022-09-25T00:54:28.019Z,65.25
2022-09-25T00:56:56.856Z,65.97
2022-09-25T00:59:29.671Z,62.10
2022-09-25T01:01:56.813Z,64.85
2022-09-25T01:04:24.394Z,67.68
2022-09-25T01:06:50.906Z,66.35
2022-09-25T01:09:18.332Z,66.30
2022-09-25T01:11:45.219Z,66.90
2022-09-25T01:14:16.267Z,66.78
2022-09-25T01:16:59.367Z,65.15
2022-09-25T01:19:44.905Z,64.68
2022-09-25T01:22:17.164Z,64.82
2022-09-25T01:25:10.040Z,62.63
2022-09-25T01:27:51.379Z,64.43
2022-09-25T01:30:19.692Z,61.03
2022-09-25T01:32:58.462Z,64.70
2022-09-25T01:35:48.912Z,63.58
2022-09-25T01:38:42.807Z,62.85
2022-09-25T01:41:21.884Z,61.22
2022-09-25T01:43:55.121Z,65.32
2022-09-25T01:46:26.930Z,64.63
2022-09-25T01:49:02.418Z,67.90
2022-09-25T01:51:37.825Z,65.60
2022-09-25T01:54:10.925Z,65.18
2022-09-25T01:56:43.983Z,67.32
2022-09-25T01:59:20.368Z,65.10
2022-09-25T02:01:47.855Z,68.57
2022-09-25T02:04:25.081Z,68.40
2022-09-25T02:06:54.707Z,66.28
2022-09-25T02:09:32.035Z,68.45
2022-09-25T02:12:07.172Z,67.68
2022-09-25T02:14:56.553Z,66.38
2022-09-25T02:18:18.519Z,70.27
2022-09-25T02:20:53.550Z,67.25
2022-09-25T02:23:23.681Z,67.82
2022-09-25T02:26:01.141Z,70.15
2022-09-25T02:28:27.780Z,69.68
2022-09-25T02:30:57.719Z,71.00
2022-09-25T02:33:24.476Z,69.45
2022-09-25T02:35:50.862Z,71.82
2022-09-25T02:38:17.386Z,71.85
2022-09-25T02:40:52.137Z,71.65
2022-09-25T02:43:44.979Z,70.38
2022-09-25T02:46:36.862Z,69.75
2022-09-25T02:49:16.007Z,69.80
2022-09-25T02:51:57.308Z,70.78
2022-09-25T02:54:45.185Z,71.82
2022-09-25T02:57:27.462Z,70.53
2022-09-25T02:59:59.356Z,71.78
2022-09-25T03:02:28.997Z,71.90
2022-09-25T03:04:57.354Z,72.32
2022-09-25T03:07:23.896Z,72.07
2022-09-25T03:09:53.985Z,75.60
2022-09-25T03:12:20.385Z,76.40
2022-09-25T03:14:46.833Z,73.75
2022-09-25T03:17:15.107Z,73.75
2022-09-25T03:19:41.489Z,74.38
2022-09-25T03:22:07.869Z,77.15
2022-09-25T03:24:34.409Z,75.55
2022-09-25T03:27:00.791Z,76.78
2022-09-25T03:29:27.272Z,75.03
2022-09-25T03:31:53.616Z,75.45
2022-09-25T03:34:19.970Z,75.70
2022-09-25T03:36:49.282Z,79.57
2022-09-25T03:39:17.785Z,74.27
2022-09-25T03:41:44.574Z,75.68
2022-09-25T03:44:11.806Z,76.22
2022-09-25T03:46:38.436Z,74.50
2022-09-25T03:49:05.573Z,74.72
2022-09-25T03:51:32.539Z,74.45
2022-09-25T03:53:58.957Z,76.93
2022-09-25T03:56:29.583Z,69.60
2022-09-25T03:58:56.788Z,73.78
2022-09-25T04:01:24.746Z,74.95
2022-09-25T04:03:51.492Z,74.53
2022-09-25T04:06:22.522Z,71.65
2022-09-25T04:08:49.061Z,72.95
2022-09-25T04:11:20.322Z,71.03
2022-09-25T04:13:46.955Z,67.35
2022-09-25T04:16:15.995Z,70.15
2022-09-25T04:18:44.087Z,70.80
2022-09-25T04:21:12.929Z,69.55
2022-09-25T04:23:40.161Z,63.40
2022-09-25T04:26:07.635Z,65.93
2022-09-25T04:28:34.502Z,66.32
2022-09-25T04:31:02.051Z,63.40
2022-09-25T04:33:47.382Z,63.22
2022-09-25T04:36:18.882Z,62.13
2022-09-25T04:38:45.861Z,62.70
2022-09-25T04:41:12.285Z,60.38
2022-09-25T04:43:40.909Z,61.88
2022-09-25T04:46:08.592Z,62.58
2022-09-25T04:48:35.918Z,65.55
2022-09-25T04:51:03.748Z,60.22
2022-09-25T04:53:31.607Z,60.97
2022-09-25T04:56:03.106Z,61.70
2022-09-25T04:58:29.542Z,61.13
2022-09-25T05:00:56.062Z,63.00
2022-09-25T05:03:22.528Z,61.83
2022-09-25T05:05:49.573Z,61.85
2022-09-25T05:08:15.920Z,61.50
2022-09-25T05:10:43.912Z,59.90
2022-09-25T05:13:11.137Z,60.22
2022-09-25T05:15:37.774Z,61.22
2022-09-25T05:18:11.872Z,58.78
2022-09-25T05:20:38.891Z,59.63
2022-09-25T05:23:05.270Z,58.40
2022-09-25T05:25:32.221Z,58.42
2022-09-25T05:28:00.545Z,58.13
2022-09-25T05:30:31.998Z,56.33
2022-09-25T05:32:58.830Z,57.15
2022-09-25T05:35:27.964Z,58.13
2022-09-25T05:37:54.353Z,58.20
2022-09-25T05:40:21.618Z,57.90
2022-09-25T05:42:48.455Z,60.13
2022-09-25T05:45:16.597Z,59.15
2022-09-25T05:47:43.774Z,60.88
2022-09-25T05:50:13.797Z,59.75
2022-09-25T05:52:40.526Z,59.25
2022-09-25T05:55:08.122Z,60.47
2022-09-25T05:57:35.962Z,59.53
2022-09-25T06:00:05.122Z,57.20
2022-09-25T06:02:31.534Z,44.15
2022-09-25T06:04:57.975Z,42.25
2022-09-25T06:07:24.328Z,40.67
2022-09-25T06:09:50.877Z,39.85
2022-09-25T06:12:18.373Z,39.60
2022-09-25T06:14:44.876Z,34.80
2022-09-25T06:17:12.727Z,32.33
2022-09-25T06:19:39.123Z,33.08
2022-09-25T06:22:05.519Z,32.55
2022-09-25T06:24:31.873Z,31.80
2022-09-25T06:26:58.221Z,32.35
2022-09-25T06:29:25.379Z,32.80
2022-09-25T06:31:52.274Z,32.55
2022-09-25T06:34:19.168Z,33.35
2022-09-25T06:36:45.558Z,33.15
2022-09-25T06:39:11.928Z,33.47
2022-09-25T06:41:38.491Z,33.50
2022-09-25T06:44:05.174Z,34.03
2022-09-25T06:46:31.654Z,34.80
2022-09-25T06:48:58.031Z,33.80
2022-09-25T06:51:28.811Z,34.08
2022-09-25T06:53:55.884Z,35.42
2022-09-25T06:56:22.440Z,34.63
2022-09-25T06:58:49.031Z,35.45
2022-09-25T07:01:15.994Z,34.92
2022-09-25T07:03:45.582Z,35.13
2022-09-25T07:06:31.495Z,36.75
2022-09-25T07:08:58.001Z,35.53
2022-09-25T07:11:28.078Z,37.08
2022-09-25T07:13:57.677Z,36.22
2022-09-25T07:16:28.358Z,35.90
2022-09-25T07:19:00.602Z,36.50
2022-09-25T07:21:30.419Z,37.80
2022-09-25T07:23:58.197Z,38.65
2022-09-25T07:26:27.774Z,38.90
2022-09-25T07:28:57.694Z,38.83
2022-09-25T07:31:26.910Z,39.78
2022-09-25T07:33:54.234Z,40.13
2022-09-25T07:36:21.642Z,40.28
2022-09-25T07:38:52.746Z,39.50
2022-09-25T07:41:22.618Z,39.60
2022-09-25T07:46:45.916Z,38.53
2022-09-25T07:49:16.521Z,39.15
2022-09-25T07:54:09.268Z,36.80
2022-09-25T07:56:37.993Z,37.67
2022-09-25T07:59:04.529Z,37.30
2022-09-25T08:01:30.928Z,37.40
2022-09-25T08:03:57.329Z,36.63
2022-09-25T08:06:23.709Z,37.80
2022-09-25T08:08:50.048Z,37.67
2022-09-25T08:11:17.673Z,39.00
2022-09-25T08:13:44.921Z,37.92
2022-09-25T08:16:16.524Z,38.03
2022-09-25T08:18:46.213Z,36.70
2022-09-25T08:21:14.847Z,37.75
2022-09-25T08:23:47.478Z,37.47
2022-09-25T08:26:14.269Z,37.95
2022-09-25T08:28:40.738Z,37.08
2022-09-25T08:31:08.681Z,37.35
2022-09-25T08:33:35.995Z,38.13
2022-09-25T08:36:05.035Z,38.70
2022-09-25T08:38:33.119Z,38.95
2022-09-25T08:41:03.756Z,36.45
2022-09-25T08:43:34.344Z,35.80
2022-09-25T08:46:23.975Z,36.83
2022-09-25T08:49:03.266Z,36.10
2022-09-25T08:51:32.573Z,36.83
2022-09-25T08:54:00.199Z,37.17
2022-09-25T08:56:29.312Z,37.47
2022-09-25T08:59:05.582Z,36.28
2022-09-25T09:01:53.187Z,37.25
2022-09-25T09:04:26.297Z,38.15
2022-09-25T09:07:25.306Z,37.25
2022-09-25T09:09:49.522Z,36.65
2022-09-25T09:12:28.004Z,38.67
2022-09-25T09:15:07.265Z,37.63
2022-09-25T09:17:41.428Z,38.55
2022-09-25T09:20:19.917Z,37.38
2022-09-25T09:22:51.026Z,38.63
2022-09-25T09:25:35.974Z,39.08
2022-09-25T09:28:26.743Z,37.58
2022-09-25T09:31:14.206Z,37.88
2022-09-25T09:34:02.722Z,37.58
2022-09-25T09:36:41.409Z,38.00
2022-09-25T09:39:23.675Z,36.97
2022-09-25T09:42:01.991Z,38.90
2022-09-25T09:44:28.680Z,39.85
2022-09-25T09:47:07.843Z,37.10
2022-09-25T09:50:18.960Z,37.65
2022-09-25T09:52:50.316Z,39.20
2022-09-25T09:55:36.934Z,40.33
2022-09-25T09:58:11.377Z,39.85
2022-09-25T10:00:39.845Z,40.17
2022-09-25T10:03:11.684Z,38.40
2022-09-25T10:05:43.336Z,37.97
2022-09-25T10:08:10.717Z,40.03
2022-09-25T10:10:41.545Z,39.95
2022-09-25T10:13:19.214Z,41.13
2022-09-25T10:15:52.253Z,41.25
2022-09-25T10:18:21.239Z,41.15
2022-09-25T10:21:13.282Z,41.00
2022-09-25T10:23:40.658Z,39.25
2022-09-25T10:26:31.042Z,40.50
2022-09-25T10:29:02.392Z,40.47
2022-09-25T10:31:33.844Z,40.05
2022-09-25T10:34:01.695Z,39.50
2022-09-25T10:36:38.966Z,39.78
2022-09-25T10:39:43.104Z,40.08
2022-09-25T10:42:40.942Z,38.55
2022-09-25T10:45:30.820Z,38.83
2022-09-25T10:48:15.964Z,36.85
2022-09-25T10:50:42.943Z,38.25
2022-09-25T10:53:35.730Z,39.70
2022-09-25T10:56:15.019Z,37.65
2022-09-25T10:58:46.364Z,40.60
2022-09-25T11:01:16.290Z,39.33
2022-09-25T11:04:17.414Z,39.38
2022-09-25T11:06:48.266Z,38.90
2022-09-25T11:09:32.558Z,39.50
2022-09-25T11:12:27.038Z,40.30
2022-09-25T11:14:58.634Z,39.60
2022-09-25T11:17:42.088Z,40.55
2022-09-25T11:20:11.967Z,39.95
2022-09-25T11:22:40.725Z,40.28
2022-09-25T11:25:14.729Z,39.83
2022-09-25T11:27:44.130Z,36.70
2022-09-25T11:30:12.490Z,38.03
2022-09-25T11:32:52.394Z,36.53
2022-09-25T11:38:43.220Z,34.88
2022-09-25T11:41:23.283Z,35.15
2022-09-25T11:44:01.196Z,34.75
2022-09-25T11:46:43.658Z,35.78
2022-09-25T11:49:31.409Z,35.88
2022-09-25T11:52:14.008Z,36.42
2022-09-25T11:54:57.364Z,36.88
2022-09-25T11:57:41.593Z,38.45
2022-09-25T12:00:19.743Z,35.05
2022-09-25T12:03:02.601Z,36.13
2022-09-25T12:05:59.894Z,36.65
2022-09-25T12:09:06.959Z,34.75
2022-09-25T12:11:45.801Z,35.67
2022-09-25T12:14:33.604Z,35.60
2022-09-25T12:17:16.071Z,36.78
2022-09-25T12:19:48.588Z,35.40
2022-09-25T12:22:36.369Z,35.50
2022-09-25T12:25:23.009Z,34.28
2022-09-25T12:28:04.978Z,35.53
2022-09-25T12:30:48.078Z,35.42
2022-09-25T12:33:32.756Z,32.80
2022-09-25T12:36:12.500Z,31.48
2022-09-25T12:38:57.048Z,31.45
2022-09-25T12:41:51.208Z,30.63
2022-09-25T12:44:27.424Z,30.20
2022-09-25T12:47:02.087Z,30.35
2022-09-25T12:49:41.198Z,30.10
2022-09-25T12:52:36.418Z,29.05
2022-09-25T12:55:27.083Z,28.35
2022-09-25T12:58:12.448Z,28.55
2022-09-25T13:00:43.481Z,25.77
2022-09-25T13:03:23.887Z,26.08
2022-09-25T13:06:03.734Z,26.23
2022-09-25T13:08:48.658Z,25.38
2022-09-25T13:11:24.020Z,25.48
2022-09-25T13:13:55.127Z,25.33
2022-09-25T13:16:22.392Z,24.85
2022-09-25T13:19:11.565Z,24.20
2022-09-25T13:21:43.236Z,24.27
2022-09-25T13:24:15.994Z,23.73
2022-09-25T13:26:57.484Z,24.30
2022-09-25T13:29:31.149Z,24.27
2022-09-25T13:32:20.245Z,24.30
2022-09-25T13:34:56.561Z,24.00
2022-09-25T13:37:35.792Z,23.35
2022-09-25T13:40:47.774Z,23.05
2022-09-25T13:43:21.461Z,23.25
2022-09-25T13:45:51.945Z,22.60
2022-09-25T13:48:39.754Z,22.48
2022-09-25T13:51:19.157Z,21.80
2022-09-25T13:54:08.084Z,21.92
2022-09-25T13:56:40.409Z,20.63
2022-09-25T13:59:10.335Z,20.20
2022-09-25T14:01:38.840Z,19.77
2022-09-25T14:04:11.121Z,19.20
2022-09-25T14:06:42.296Z,20.10
2022-09-25T14:09:24.751Z,19.70
2022-09-25T14:12:03.934Z,19.70
2022-09-25T14:14:36.823Z,19.63
2022-09-25T14:17:04.757Z,18.52
2022-09-25T14:19:39.693Z,18.30
2022-09-25T14:22:08.321Z,18.20
2022-09-25T14:24:45.465Z,19.23
2022-09-25T14:27:22.490Z,18.83
2022-09-25T14:29:49.729Z,18.58
2022-09-25T14:32:55.523Z,19.02
2022-09-25T14:36:00.074Z,18.58
2022-09-25T14:39:04.312Z,18.50
2022-09-25T14:41:44.230Z,18.02
2022-09-25T14:44:23.365Z,17.45
2022-09-25T14:46:52.600Z,16.98
2022-09-25T14:49:32.673Z,17.30
2022-09-25T14:52:07.841Z,17.38
2022-09-25T14:54:38.309Z,17.02
2022-09-25T14:57:06.285Z,16.13
2022-09-25T14:59:42.331Z,16.05
2022-09-25T15:02:18.703Z,15.35
2022-09-25T15:04:57.940Z,15.18
2022-09-25T15:07:28.271Z,15.13
2022-09-25T15:10:01.926Z,13.10
2022-09-25T15:12:34.856Z,14.05
2022-09-25T15:15:14.551Z,13.90
2022-09-25T15:17:59.726Z,13.68
2022-09-25T15:20:38.361Z,12.48
2022-09-25T15:23:16.549Z,11.50
2022-09-25T15:25:47.735Z,11.85
2022-09-25T15:28:21.352Z,10.38
2022-09-25T15:30:57.137Z,9.93
2022-09-25T15:33:34.364Z,10.35
2022-09-25T15:36:06.973Z,9.70
2022-09-25T15:38:36.502Z,9.80
2022-09-25T15:41:17.254Z,10.13
2022-09-25T15:43:44.179Z,10.85
2022-09-25T15:46:11.157Z,10.20
2022-09-25T15:48:50.978Z,9.82
2022-09-25T15:51:28.176Z,10.15
2022-09-25T15:53:59.550Z,9.70
2022-09-25T15:56:29.421Z,10.00
2022-09-25T15:59:15.775Z,10.50
2022-09-25T16:02:05.075Z,9.82
2022-09-25T16:04:49.786Z,9.18
2022-09-25T16:07:40.941Z,8.80
2022-09-25T16:10:16.957Z,9.20
2022-09-25T16:12:47.848Z,9.07
2022-09-25T16:15:30.178Z,9.70
2022-09-25T16:18:04.454Z,9.40
2022-09-25T16:20:36.513Z,9.10
2022-09-25T16:23:21.855Z,9.98
2022-09-25T16:25:49.059Z,9.93
2022-09-25T16:28:28.599Z,10.00
2022-09-25T16:31:09.069Z,10.10
2022-09-25T16:33:51.025Z,9.65
2022-09-25T16:36:21.408Z,9.40
2022-09-25T16:39:10.181Z,10.20
2022-09-25T16:41:44.045Z,10.05
2022-09-25T16:44:19.036Z,10.57
2022-09-25T16:47:25.868Z,11.25
2022-09-25T16:50:04.837Z,11.50
2022-09-25T16:52:35.183Z,10.48
2022-09-25T16:57:46.096Z,10.95
2022-09-25T17:02:49.211Z,10.80
2022-09-25T17:07:47.715Z,11.02
2022-09-25T17:10:16.156Z,12.80
2022-09-25T17:12:49.797Z,12.88
2022-09-25T17:15:25.722Z,13.38
2022-09-25T17:17:54.815Z,11.57
2022-09-25T17:20:27.283Z,11.35
2022-09-25T17:22:58.435Z,10.65
2022-09-25T17:26:03.285Z,11.20
2022-09-25T17:28:29.829Z,11.85
2022-09-25T17:30:56.229Z,12.60
2022-09-25T17:33:23.360Z,12.35
2022-09-25T17:36:04.781Z,12.27
2022-09-25T17:38:34.810Z,11.90
2022-09-25T17:41:05.604Z,11.68
2022-09-25T17:43:32.601Z,11.85
2022-09-25T17:46:00.569Z,11.38
2022-09-25T17:48:31.876Z,11.55
2022-09-25T17:51:00.441Z,11.93
2022-09-25T17:53:29.493Z,13.82
2022-09-25T17:55:57.145Z,12.32
2022-09-25T17:58:25.007Z,13.60
2022-09-25T18:00:53.043Z,14.77
2022-09-25T18:03:20.783Z,16.05
2022-09-25T18:05:47.805Z,14.85
2022-09-25T18:08:15.089Z,15.32
2022-09-25T18:10:42.078Z,15.13
2022-09-25T18:13:13.787Z,15.27
2022-09-25T18:16:08.418Z,14.00
2022-09-25T18:18:53.484Z,13.38
2022-09-25T18:21:38.590Z,14.80
2022-09-25T18:24:05.254Z,13.98
2022-09-25T18:26:31.799Z,14.98
2022-09-25T18:28:58.187Z,15.02
2022-09-25T18:31:25.354Z,16.65
2022-09-25T18:33:54.807Z,17.17
2022-09-25T18:36:22.040Z,15.90
2022-09-25T18:38:48.576Z,17.08
2022-09-25T18:41:15.005Z,20.58
2022-09-25T18:43:41.416Z,18.52
2022-09-25T18:46:08.040Z,18.58
2022-09-25T18:48:35.579Z,18.05
2022-09-25T18:51:01.983Z,15.88
2022-09-25T18:53:28.364Z,15.15
2022-09-25T18:55:58.121Z,15.20
2022-09-25T18:58:24.643Z,16.05
2022-09-25T19:00:51.579Z,15.90
2022-09-25T19:03:17.950Z,16.23
2022-09-25T19:05:44.319Z,16.10
2022-09-25T19:08:11.346Z,16.10
2022-09-25T19:10:37.686Z,16.25
2022-09-25T19:13:04.232Z,15.82
2022-09-25T19:15:30.760Z,15.27
2022-09-25T19:17:57.490Z,15.20
2022-09-25T19:20:24.464Z,14.93
2022-09-25T19:22:51.158Z,15.35
2022-09-25T19:25:22.286Z,15.63
2022-09-25T19:27:49.205Z,14.98
2022-09-25T19:30:15.640Z,16.10
2022-09-25T19:32:42.210Z,17.63
2022-09-25T19:35:11.086Z,16.50
2022-09-25T19:37:38.757Z,16.38
2022-09-25T19:40:24.855Z,16.50
2022-09-25T19:42:51.430Z,16.45
2022-09-25T19:45:19.614Z,16.17
2022-09-25T19:47:46.351Z,15.65
2022-09-25T19:50:12.901Z,17.02
2022-09-25T19:52:39.364Z,16.27
2022-09-25T19:55:06.232Z,16.73
2022-09-25T19:57:32.580Z,16.48
2022-09-25T20:00:00.335Z,17.75
2022-09-25T20:02:26.774Z,16.73
2022-09-25T20:04:53.163Z,16.88
2022-09-25T20:07:19.530Z,16.48
2022-09-25T20:09:46.077Z,16.98
2022-09-25T20:12:12.497Z,16.95
2022-09-25T20:14:38.853Z,16.67
2022-09-25T20:17:10.122Z,17.27
2022-09-25T20:19:36.801Z,16.33
2022-09-25T20:22:03.190Z,17.40
2022-09-25T20:24:29.531Z,16.75
2022-09-25T20:26:55.911Z,16.15
2022-09-25T20:29:22.296Z,16.35
2022-09-25T20:31:48.731Z,16.08
2022-09-25T20:34:17.829Z,16.67
2022-09-25T20:36:44.685Z,16.80
2022-09-25T20:39:13.546Z,16.52
2022-09-25T20:41:42.228Z,16.00
2022-09-25T20:44:08.771Z,16.10
2022-09-25T20:46:35.458Z,16.90
2022-09-25T20:49:02.894Z,16.98
2022-09-25T20:51:32.299Z,16.42
2022-09-25T20:54:01.297Z,16.47
2022-09-25T20:56:29.657Z,16.52
2022-09-25T20:58:57.072Z,16.75
2022-09-25T21:01:26.359Z,16.95
2022-09-25T21:03:53.604Z,17.53
2022-09-25T21:06:25.431Z,16.20
2022-09-25T21:08:56.530Z,15.38
2022-09-25T21:11:24.548Z,16.52
2022-09-25T21:13:53.321Z,16.15
2022-09-25T21:16:21.645Z,15.98
2022-09-25T21:18:53.956Z,15.88
2022-09-25T21:21:20.450Z,15.98
2022-09-25T21:23:53.907Z,15.68
2022-09-25T21:26:21.858Z,16.17
2022-09-25T21:28:51.522Z,15.95
2022-09-25T21:31:25.360Z,15.75
2022-09-25T21:33:53.357Z,15.52
2022-09-25T21:36:20.782Z,15.93
2022-09-25T21:38:47.509Z,15.30
2022-09-25T21:41:17.206Z,15.57
2022-09-25T21:43:44.049Z,16.20
2022-09-25T21:46:19.306Z,15.35
2022-09-25T21:48:49.681Z,15.02
2022-09-25T21:53:43.382Z,14.45
2022-09-25T21:56:13.240Z,15.95
2022-09-25T21:58:39.974Z,15.27
2022-09-25T22:01:08.870Z,16.00
2022-09-25T22:03:37.585Z,15.68
2022-09-25T22:06:07.242Z,15.10
2022-09-25T22:08:39.338Z,15.65
2022-09-25T22:11:07.144Z,15.32
2022-09-25T22:13:36.275Z,16.40
2022-09-25T22:16:09.375Z,15.23
2022-09-25T22:18:43.298Z,15.73
2022-09-25T22:21:11.519Z,16.10
2022-09-25T22:23:37.877Z,15.65
2022-09-25T22:26:04.347Z,15.68
2022-09-25T22:28:30.974Z,14.77
2022-09-25T22:30:57.540Z,14.70
2022-09-25T22:33:24.042Z,15.77
2022-09-25T22:35:58.746Z,15.27
2022-09-25T22:38:25.095Z,15.60
2022-09-25T22:40:51.578Z,15.43
2022-09-25T22:43:18.056Z,15.27
2022-09-25T22:45:52.699Z,15.93
2022-09-25T22:48:19.549Z,15.85
2022-09-25T22:51:01.034Z,15.48
2022-09-25T22:53:32.733Z,15.68
2022-09-25T22:56:19.033Z,16.02
2022-09-25T22:58:48.825Z,15.10
2022-09-25T23:01:26.288Z,15.30
2022-09-25T23:03:57.490Z,16.05
2022-09-25T23:06:25.174Z,15.57
2022-09-25T23:08:56.669Z,15.73
2022-09-25T23:11:23.954Z,15.00
2022-09-25T23:13:56.846Z,14.95
2022-09-25T23:16:23.324Z,15.18
2022-09-25T23:18:49.718Z,14.90
2022-09-25T23:21:16.112Z,15.35
2022-09-25T23:23:42.470Z,14.70
2022-09-25T23:26:09.419Z,15.52
2022-09-25T23:28:37.905Z,15.80
2022-09-25T23:31:09.771Z,15.52
2022-09-25T23:33:36.964Z,15.13
2022-09-25T23:36:13.392Z,15.70
2022-09-25T23:38:40.021Z,14.82
2022-09-25T23:41:33.703Z,15.32
2022-09-25T23:44:01.592Z,15.15
2022-09-25T23:46:31.553Z,14.90
2022-09-25T23:48:59.026Z,15.38
2022-09-25T23:51:26.280Z,15.95
2022-09-25T23:53:56.508Z,14.90
2022-09-25T23:58:51.968Z,15.18
